createdAt,value
2023-05-06T00:00:33.361Z,10.03
2023-05-06T00:04:34.901Z,10.71
2023-05-06T00:08:36.396Z,10.12
2023-05-06T00:12:38.423Z,10.34
2023-05-06T00:16:39.937Z,10.72
2023-05-06T00:20:41.905Z,10.73
2023-05-06T00:24:43.666Z,10.72
2023-05-06T00:28:45.153Z,10.19
2023-05-06T00:32:46.613Z,10.49
2023-05-06T00:36:48.139Z,9.79
2023-05-06T00:40:49.844Z,10.20
2023-05-06T00:44:51.633Z,10.42
2023-05-06T00:48:53.149Z,10.42
2023-05-06T00:52:55.857Z,10.50
2023-05-06T00:56:57.426Z,10.42
2023-05-06T01:00:59.372Z,9.82
2023-05-06T01:05:01.094Z,10.21
2023-05-06T01:09:25.886Z,9.99
2023-05-06T01:13:36.492Z,9.81
2023-05-06T01:17:43.452Z,9.94
2023-05-06T01:21:46.206Z,9.74
2023-05-06T01:25:48.120Z,9.73
2023-05-06T01:29:51.494Z,10.02
2023-05-06T01:34:37.412Z,10.33
2023-05-06T01:38:44.753Z,9.55
2023-05-06T01:42:50.669Z,10.14
2023-05-06T01:46:53.761Z,9.51
2023-05-06T01:50:55.540Z,9.82
2023-05-06T01:54:56.968Z,9.86
2023-05-06T01:58:59.746Z,9.59
2023-05-06T02:03:01.542Z,9.63
2023-05-06T02:07:03.082Z,9.83
2023-05-06T02:11:04.607Z,9.91
2023-05-06T02:15:07.674Z,9.68
2023-05-06T02:19:09.585Z,9.78
2023-05-06T02:23:11.642Z,9.61
2023-05-06T02:27:14.313Z,10.11
2023-05-06T02:31:16.212Z,10.35
2023-05-06T02:35:17.787Z,9.45
2023-05-06T02:39:19.322Z,9.62
2023-05-06T02:43:20.873Z,9.62
2023-05-06T02:47:22.332Z,9.67
2023-05-06T02:51:23.876Z,9.70
2023-05-06T02:55:25.733Z,9.65
2023-05-06T02:59:27.224Z,9.48
2023-05-06T03:03:28.658Z,9.46
2023-05-06T03:07:30.988Z,9.78
2023-05-06T03:11:32.782Z,9.83
2023-05-06T03:15:38.330Z,9.80
2023-05-06T03:19:39.918Z,9.47
2023-05-06T03:23:43.348Z,9.93
2023-05-06T03:27:45.708Z,9.68
2023-05-06T03:31:56.262Z,9.84
2023-05-06T03:35:59.792Z,9.46
2023-05-06T03:40:04.187Z,9.57
2023-05-06T03:44:06.925Z,9.24
2023-05-06T03:48:08.525Z,9.85
2023-05-06T03:52:16.625Z,9.22
2023-05-06T03:56:18.250Z,9.42
2023-05-06T04:00:23.022Z,9.46
2023-05-06T04:04:28.205Z,9.39
2023-05-06T04:08:31.632Z,9.37
2023-05-06T04:12:34.552Z,9.84
2023-05-06T04:16:36.425Z,9.57
2023-05-06T04:20:38.012Z,9.71
2023-05-06T04:24:41.712Z,9.42
2023-05-06T04:28:44.963Z,9.60
2023-05-06T04:32:48.543Z,9.15
2023-05-06T04:36:51.063Z,9.42
2023-05-06T04:41:01.570Z,9.85
2023-05-06T04:45:04.191Z,9.47
2023-05-06T04:49:07.590Z,9.83
2023-05-06T04:53:09.954Z,9.55
2023-05-06T04:57:11.508Z,9.91
2023-05-06T05:01:15.548Z,9.89
2023-05-06T05:05:17.216Z,9.93
2023-05-06T05:09:22.095Z,9.80
2023-05-06T05:13:24.352Z,10.01
2023-05-06T05:17:27.629Z,10.21
2023-05-06T05:21:29.823Z,9.51
2023-05-06T05:25:32.321Z,9.63
2023-05-06T05:29:34.263Z,9.74
2023-05-06T05:33:39.212Z,10.38
2023-05-06T05:37:44.037Z,9.82
2023-05-06T05:41:45.707Z,9.56
2023-05-06T05:45:47.730Z,10.20
2023-05-06T05:49:49.562Z,9.86
2023-05-06T05:53:52.054Z,9.64
2023-05-06T05:57:55.047Z,10.01
2023-05-06T06:01:58.365Z,9.89
2023-05-06T06:06:00.278Z,10.03
2023-05-06T06:10:04.319Z,10.17
2023-05-06T06:14:05.776Z,9.93
2023-05-06T06:18:08.929Z,10.31
2023-05-06T06:22:11.789Z,10.41
2023-05-06T06:26:13.819Z,10.05
2023-05-06T06:30:15.513Z,10.16
2023-05-06T06:34:17.027Z,10.39
2023-05-06T06:38:18.540Z,10.42
2023-05-06T06:42:20.040Z,10.65
2023-05-06T06:46:31.910Z,10.00
2023-05-06T06:50:33.360Z,10.59
2023-05-06T06:54:37.633Z,10.19
2023-05-06T06:58:39.444Z,10.34
2023-05-06T07:02:41.014Z,9.85
2023-05-06T07:06:42.543Z,10.25
2023-05-06T07:10:44.181Z,10.16
2023-05-06T07:14:45.717Z,10.51
2023-05-06T07:18:47.892Z,10.62
2023-05-06T07:22:49.305Z,10.56
2023-05-06T07:26:50.870Z,11.28
2023-05-06T07:30:53.101Z,10.73
2023-05-06T07:34:54.608Z,10.47
2023-05-06T07:38:56.163Z,10.42
2023-05-06T07:42:57.654Z,10.43
2023-05-06T07:46:59.177Z,10.76
2023-05-06T07:51:00.958Z,11.04
2023-05-06T07:55:02.508Z,10.73
2023-05-06T07:59:04.170Z,11.52
2023-05-06T08:03:05.681Z,11.02
2023-05-06T08:07:07.271Z,11.29
2023-05-06T08:11:08.738Z,11.72
2023-05-06T08:15:11.407Z,11.64
2023-05-06T08:19:13.263Z,11.43
2023-05-06T08:23:14.714Z,11.35
2023-05-06T08:27:16.271Z,11.61
2023-05-06T08:31:17.954Z,11.49
2023-05-06T08:35:19.936Z,10.87
2023-05-06T08:39:21.392Z,11.32
2023-05-06T08:43:26.936Z,11.41
2023-05-06T08:47:28.454Z,11.13
2023-05-06T08:51:31.718Z,10.97
2023-05-06T08:55:34.102Z,10.91
2023-05-06T08:59:35.769Z,11.64
2023-05-06T09:03:37.693Z,11.37
2023-05-06T09:07:39.417Z,11.07
2023-05-06T09:11:41.157Z,11.75
2023-05-06T09:15:44.381Z,11.10
2023-05-06T09:19:46.646Z,11.35
2023-05-06T09:23:48.409Z,11.54
2023-05-06T09:27:50.058Z,12.09
2023-05-06T09:31:53.920Z,11.79
2023-05-06T09:35:56.417Z,11.78
2023-05-06T09:39:59.600Z,11.79
2023-05-06T09:44:01.352Z,12.00
2023-05-06T09:48:02.939Z,11.68
2023-05-06T09:52:06.878Z,11.93
2023-05-06T09:56:09.005Z,11.70
2023-05-06T10:00:14.163Z,11.41
2023-05-06T10:04:18.198Z,11.56
2023-05-06T10:08:21.273Z,12.35
2023-05-06T10:12:22.781Z,12.04
2023-05-06T10:16:24.316Z,12.24
2023-05-06T10:20:27.124Z,12.29
2023-05-06T10:24:35.418Z,11.79
2023-05-06T10:28:41.267Z,12.45
2023-05-06T10:32:44.525Z,12.11
2023-05-06T10:36:47.912Z,11.70
2023-05-06T10:40:50.610Z,12.03
2023-05-06T10:45:00.480Z,11.95
2023-05-06T10:49:04.762Z,11.82
2023-05-06T10:53:06.333Z,12.29
2023-05-06T10:57:09.121Z,11.67
2023-05-06T11:01:11.005Z,13.06
2023-05-06T11:05:12.753Z,12.06
2023-05-06T11:09:22.506Z,12.08
2023-05-06T11:13:29.235Z,12.59
2023-05-06T11:17:33.489Z,12.42
2023-05-06T11:21:36.786Z,12.49
2023-05-06T11:25:42.618Z,12.08
2023-05-06T11:29:44.250Z,13.06
2023-05-06T11:33:47.988Z,12.78
2023-05-06T11:37:52.085Z,12.35
2023-05-06T11:41:53.580Z,12.71
2023-05-06T11:45:55.104Z,12.92
2023-05-06T11:49:58.958Z,12.38
2023-05-06T11:54:06.885Z,12.64
2023-05-06T11:58:16.626Z,13.05
2023-05-06T12:02:18.359Z,12.64
2023-05-06T12:06:32.582Z,12.94
2023-05-06T12:10:34.334Z,12.63
2023-05-06T12:14:39.528Z,12.13
2023-05-06T12:18:41.029Z,11.80
2023-05-06T12:22:42.811Z,11.69
2023-05-06T12:26:49.057Z,12.30
2023-05-06T12:30:51.076Z,12.17
2023-05-06T12:34:52.600Z,11.94
2023-05-06T12:38:59.911Z,12.29
2023-05-06T12:43:01.442Z,12.63
2023-05-06T12:47:07.977Z,12.15
2023-05-06T12:51:19.699Z,12.09
2023-05-06T12:55:23.307Z,11.96
2023-05-06T12:59:26.583Z,12.28
2023-05-06T13:03:28.199Z,12.47
2023-05-06T13:07:29.745Z,12.08
2023-05-06T13:11:31.153Z,11.61
2023-05-06T13:15:33.597Z,12.57
2023-05-06T13:19:35.197Z,12.07
2023-05-06T13:23:38.037Z,12.07
2023-05-06T13:27:39.525Z,12.19
2023-05-06T13:31:41.200Z,12.21
2023-05-06T13:35:42.672Z,12.44
2023-05-06T13:39:44.075Z,11.95
2023-05-06T13:43:45.546Z,11.79
2023-05-06T13:47:46.996Z,12.17
2023-05-06T13:51:48.724Z,12.85
2023-05-06T13:55:50.496Z,13.13
2023-05-06T13:59:51.968Z,12.86
2023-05-06T14:03:53.547Z,12.99
2023-05-06T14:07:55.238Z,12.96
2023-05-06T14:11:56.714Z,12.40
2023-05-06T14:15:59.291Z,12.77
2023-05-06T14:20:01.165Z,13.38
2023-05-06T14:24:04.254Z,13.30
2023-05-06T14:28:06.560Z,13.56
2023-05-06T14:32:09.270Z,12.92
2023-05-06T14:36:10.790Z,13.25
2023-05-06T14:40:12.541Z,12.97
2023-05-06T14:44:13.976Z,12.59
2023-05-06T14:48:15.666Z,13.30
2023-05-06T14:52:17.124Z,13.13
2023-05-06T14:56:18.588Z,12.69
2023-05-06T15:00:20.530Z,12.52
2023-05-06T15:04:22.027Z,12.76
2023-05-06T15:08:23.515Z,12.80
2023-05-06T15:12:24.998Z,13.35
2023-05-06T15:16:26.614Z,13.25
2023-05-06T15:20:28.248Z,12.74
2023-05-06T15:24:29.735Z,12.95
2023-05-06T15:28:31.306Z,13.03
2023-05-06T15:32:33.092Z,12.86
2023-05-06T15:36:34.649Z,12.98
2023-05-06T15:40:36.165Z,12.33
2023-05-06T15:44:37.800Z,12.06
2023-05-06T15:48:39.294Z,11.92
2023-05-06T15:52:44.939Z,12.23
2023-05-06T15:56:46.592Z,12.14
2023-05-06T16:00:48.002Z,12.63
2023-05-06T16:04:49.739Z,12.77
2023-05-06T16:08:51.351Z,11.83
2023-05-06T16:12:53.824Z,12.14
2023-05-06T16:16:55.365Z,11.95
2023-05-06T16:20:56.788Z,11.95
2023-05-06T16:24:58.356Z,12.17
2023-05-06T16:29:01.549Z,11.91
2023-05-06T16:33:05.293Z,12.75
2023-05-06T16:37:07.800Z,12.11
2023-05-06T16:41:09.297Z,11.77
2023-05-06T16:45:11.557Z,12.13
2023-05-06T16:49:13.251Z,12.11
2023-05-06T16:53:17.166Z,12.35
2023-05-06T16:57:18.967Z,12.46
2023-05-06T17:01:21.323Z,12.71
2023-05-06T17:05:22.969Z,11.59
2023-05-06T17:09:24.440Z,11.86
2023-05-06T17:13:26.050Z,12.12
2023-05-06T17:17:28.707Z,12.15
2023-05-06T17:21:31.317Z,11.49
2023-05-06T17:25:33.120Z,12.11
2023-05-06T17:29:37.618Z,11.69
2023-05-06T17:33:39.438Z,12.15
2023-05-06T17:37:40.989Z,11.99
2023-05-06T17:41:42.532Z,11.57
2023-05-06T17:45:43.978Z,11.91
2023-05-06T17:49:45.632Z,11.72
2023-05-06T17:53:47.097Z,12.19
2023-05-06T17:57:48.729Z,12.40
2023-05-06T18:01:50.264Z,11.97
2023-05-06T18:05:51.762Z,12.22
2023-05-06T18:09:53.296Z,12.47
2023-05-06T18:13:55.422Z,11.89
2023-05-06T18:17:57.043Z,11.93
2023-05-06T18:21:58.549Z,12.49
2023-05-06T18:26:00.564Z,12.25
2023-05-06T18:30:02.794Z,12.24
2023-05-06T18:34:04.622Z,12.72
2023-05-06T18:38:06.357Z,12.25
2023-05-06T18:42:08.051Z,12.31
2023-05-06T18:46:09.639Z,12.34
2023-05-06T18:50:11.396Z,12.04
2023-05-06T18:54:14.119Z,11.62
2023-05-06T18:58:18.411Z,12.25
2023-05-06T19:02:19.840Z,12.35
2023-05-06T19:06:21.352Z,11.70
2023-05-06T19:10:22.909Z,11.56
2023-05-06T19:14:25.571Z,11.99
2023-05-06T19:18:31.564Z,11.60
2023-05-06T19:22:41.418Z,11.58
2023-05-06T19:26:48.238Z,11.13
2023-05-06T19:30:50.505Z,11.34
2023-05-06T19:34:52.209Z,11.47
2023-05-06T19:38:53.764Z,11.45
2023-05-06T19:42:55.256Z,12.00
2023-05-06T19:46:56.807Z,12.14
2023-05-06T19:50:58.258Z,12.04
2023-05-06T19:55:02.209Z,11.76
2023-05-06T19:59:03.688Z,11.87
2023-05-06T20:03:05.696Z,11.52
2023-05-06T20:07:07.228Z,11.78
2023-05-06T20:11:08.887Z,11.17
2023-05-06T20:15:10.664Z,11.20
2023-05-06T20:19:12.855Z,12.01
2023-05-06T20:23:14.336Z,11.46
2023-05-06T20:27:16.241Z,11.42
2023-05-06T20:31:17.728Z,11.88
2023-05-06T20:35:19.487Z,11.76
2023-05-06T20:39:21.893Z,11.81
2023-05-06T20:43:23.622Z,11.38
2023-05-06T20:47:25.060Z,11.65
2023-05-06T20:51:27.649Z,12.03
2023-05-06T20:55:29.172Z,11.81
2023-05-06T20:59:31.082Z,11.93
2023-05-06T21:03:32.658Z,12.02
2023-05-06T21:07:34.171Z,11.65
2023-05-06T21:11:35.742Z,11.88
2023-05-06T21:15:38.123Z,12.22
2023-05-06T21:19:39.553Z,12.24
2023-05-06T21:23:41.117Z,12.06
2023-05-06T21:27:42.653Z,12.17
2023-05-06T21:31:44.144Z,11.64
2023-05-06T21:35:46.189Z,11.59
2023-05-06T21:39:47.845Z,12.19
2023-05-06T21:43:49.311Z,12.21
2023-05-06T21:47:50.885Z,12.05
2023-05-06T21:51:52.470Z,11.74
2023-05-06T21:55:53.913Z,11.90
2023-05-06T21:59:55.375Z,11.48
2023-05-06T22:03:57.107Z,11.60
2023-05-06T22:07:58.630Z,11.53
2023-05-06T22:12:00.070Z,11.75
2023-05-06T22:16:01.640Z,11.37
2023-05-06T22:20:04.248Z,12.16
2023-05-06T22:24:06.476Z,11.98
2023-05-06T22:28:07.912Z,11.55
2023-05-06T22:32:09.416Z,11.62
2023-05-06T22:36:11.073Z,11.34
2023-05-06T22:40:12.869Z,11.79
2023-05-06T22:44:14.320Z,12.31
2023-05-06T22:48:18.338Z,11.99
2023-05-06T22:52:20.214Z,12.35
2023-05-06T22:56:21.643Z,11.72
2023-05-06T23:00:24.006Z,11.78
2023-05-06T23:04:25.444Z,11.94
2023-05-06T23:08:26.906Z,12.22
2023-05-06T23:12:32.251Z,12.50
2023-05-06T23:16:33.919Z,11.97
2023-05-06T23:20:35.500Z,11.70
2023-05-06T23:24:36.922Z,12.27
2023-05-06T23:28:38.396Z,12.24
2023-05-06T23:32:40.070Z,12.29
2023-05-06T23:36:41.820Z,12.46
2023-05-06T23:40:44.518Z,12.07
2023-05-06T23:44:46.047Z,12.22
2023-05-06T23:48:47.572Z,12.54
2023-05-06T23:52:49.006Z,12.61
2023-05-06T23:56:50.597Z,12.33
